Terminal Aerodrome Forecast
Issued by NWS Grand Junction, CO

Home | Current Version | Previous Version | Text Only | Print | Product List | Glossary On
Versions: 1 2 3 4 5 6 7 8 9 10 11 12 13 14 15 16 17 18 19 20 21 22 23 24 25 26 27 28 29 30 31 32
000
FTUS45 KGJT 231739
TAFGJT
TAF
KGJT 231739Z 2318/2418 16008KT P6SM SCT100
     FM231900 30007KT P6SM SCT110
     FM240200 05004KT P6SM SKC
     FM240600 11009KT P6SM SKC
     FM241500 14009KT P6SM SKC=

USA.gov is the U.S. government's official web portal to all federal, state and local government web resources and services.